createdAt,value
2022-10-30T00:00:01.936Z,5.80
2022-10-30T00:01:01.853Z,6.30
2022-10-30T00:02:01.924Z,6.00
2022-10-30T00:03:02.568Z,6.10
2022-10-30T00:04:01.819Z,6.50
2022-10-30T00:05:01.797Z,6.40
2022-10-30T00:06:01.942Z,6.10
2022-10-30T00:07:01.773Z,5.90
2022-10-30T00:08:02.137Z,6.40
2022-10-30T00:09:01.756Z,6.70
2022-10-30T00:10:01.793Z,5.80
2022-10-30T00:11:01.767Z,6.00
2022-10-30T00:12:02.563Z,6.30
2022-10-30T00:13:01.718Z,6.40
2022-10-30T00:14:01.772Z,6.90
2022-10-30T00:15:01.680Z,5.50
2022-10-30T00:16:01.676Z,6.10
2022-10-30T00:17:01.669Z,5.70
2022-10-30T00:18:01.651Z,5.60
2022-10-30T00:19:01.650Z,6.10
2022-10-30T00:20:01.638Z,6.10
2022-10-30T00:22:32.810Z,6.10
2022-10-30T00:23:32.787Z,6.20
2022-10-30T00:24:32.786Z,6.00
2022-10-30T00:25:32.776Z,5.50
2022-10-30T00:26:32.766Z,5.80
2022-10-30T00:27:32.747Z,5.90
2022-10-30T00:28:32.752Z,6.00
2022-10-30T00:29:32.736Z,6.10
2022-10-30T00:30:32.700Z,5.80
2022-10-30T00:31:32.718Z,7.00
2022-10-30T00:32:32.699Z,5.50
2022-10-30T00:33:32.691Z,6.00
2022-10-30T00:34:32.668Z,5.90
2022-10-30T00:35:32.707Z,6.30
2022-10-30T00:36:32.659Z,6.40
2022-10-30T00:37:32.662Z,6.30
2022-10-30T00:38:32.631Z,6.20
2022-10-30T00:39:32.611Z,6.00
2022-10-30T00:40:32.600Z,5.90
2022-10-30T00:41:32.617Z,6.00
2022-10-30T00:42:32.613Z,5.90
2022-10-30T00:43:32.576Z,6.10
2022-10-30T00:44:32.550Z,6.40
2022-10-30T00:45:32.554Z,6.10
2022-10-30T00:46:32.550Z,6.30
2022-10-30T00:47:32.530Z,6.10
2022-10-30T00:48:32.502Z,6.60
2022-10-30T00:49:32.516Z,6.80
2022-10-30T00:50:32.506Z,6.80
2022-10-30T00:51:32.503Z,6.60
2022-10-30T00:52:32.483Z,6.60
2022-10-30T00:53:32.463Z,6.60
2022-10-30T00:54:32.444Z,6.70
2022-10-30T00:55:32.436Z,6.20
2022-10-30T00:56:32.443Z,5.90
2022-10-30T00:57:32.424Z,6.00
2022-10-30T00:58:32.416Z,6.60
2022-10-30T00:59:32.399Z,6.50
2022-10-30T01:00:32.382Z,6.30
2022-10-30T01:01:32.523Z,5.70
2022-10-30T01:02:32.491Z,6.80
2022-10-30T01:03:32.354Z,5.90
2022-10-30T01:04:32.347Z,5.90
2022-10-30T01:05:32.329Z,6.10
2022-10-30T01:06:32.317Z,5.70
2022-10-30T01:07:32.311Z,5.80
2022-10-30T01:08:32.322Z,5.80
2022-10-30T01:09:32.282Z,5.70
2022-10-30T01:10:32.277Z,5.80
2022-10-30T01:11:32.269Z,6.20
2022-10-30T01:12:32.241Z,6.40
2022-10-30T01:13:32.242Z,6.30
2022-10-30T01:14:32.219Z,6.00
2022-10-30T01:15:32.209Z,6.20
2022-10-30T01:16:32.209Z,5.80
2022-10-30T01:17:32.190Z,5.80
2022-10-30T01:18:32.172Z,6.10
2022-10-30T01:19:32.177Z,6.60
2022-10-30T01:20:32.161Z,6.00
2022-10-30T01:21:32.152Z,6.10
2022-10-30T01:22:32.131Z,6.30
2022-10-30T01:23:32.130Z,5.90
2022-10-30T01:24:32.106Z,5.90
2022-10-30T01:25:32.110Z,6.30
2022-10-30T01:26:32.104Z,6.00
2022-10-30T01:27:32.081Z,5.80
2022-10-30T01:28:32.072Z,6.10
2022-10-30T01:29:32.056Z,6.00
2022-10-30T01:30:32.053Z,6.20
2022-10-30T01:31:32.044Z,6.00
2022-10-30T01:32:32.024Z,6.30
2022-10-30T01:33:32.022Z,5.70
2022-10-30T01:34:32.049Z,5.60
2022-10-30T01:35:31.998Z,5.60
2022-10-30T01:36:31.996Z,5.90
2022-10-30T01:37:31.981Z,5.40
2022-10-30T01:38:31.994Z,5.70
2022-10-30T01:39:31.948Z,5.50
2022-10-30T01:40:31.945Z,6.00
2022-10-30T01:41:31.967Z,5.70
2022-10-30T01:42:31.909Z,5.70
2022-10-30T01:43:31.905Z,5.90
2022-10-30T01:44:31.898Z,5.70
2022-10-30T01:45:31.887Z,5.70
2022-10-30T01:46:31.899Z,5.60
2022-10-30T01:47:31.860Z,5.60
2022-10-30T01:48:31.839Z,5.60
2022-10-30T01:49:31.881Z,5.60
2022-10-30T01:50:31.829Z,5.00
2022-10-30T01:51:31.834Z,5.70
2022-10-30T01:52:31.802Z,5.40
2022-10-30T01:53:31.800Z,5.80
2022-10-30T01:54:31.790Z,5.60
2022-10-30T01:55:31.779Z,5.20
2022-10-30T01:56:31.769Z,5.30
2022-10-30T01:57:31.751Z,5.40
2022-10-30T01:58:31.736Z,6.20
2022-10-30T01:59:31.720Z,5.30
2022-10-30T02:00:31.717Z,5.50
2022-10-30T02:01:31.846Z,5.60
2022-10-30T02:02:31.840Z,5.10
2022-10-30T02:03:31.680Z,5.60
2022-10-30T02:04:31.674Z,4.90
2022-10-30T02:05:31.663Z,5.40
2022-10-30T02:06:31.659Z,5.30
2022-10-30T02:07:31.647Z,5.50
2022-10-30T02:08:31.634Z,5.00
2022-10-30T02:09:31.622Z,5.00
2022-10-30T02:10:31.614Z,5.30
2022-10-30T02:11:31.613Z,5.40
2022-10-30T02:12:31.582Z,5.70
2022-10-30T02:13:31.583Z,5.50
2022-10-30T02:14:31.556Z,6.10
2022-10-30T02:15:31.554Z,6.30
2022-10-30T02:16:31.557Z,6.10
2022-10-30T02:17:31.541Z,5.10
2022-10-30T02:18:31.569Z,5.80
2022-10-30T02:19:31.533Z,5.70
2022-10-30T02:20:31.510Z,5.90
2022-10-30T02:21:31.495Z,6.30
2022-10-30T02:22:31.552Z,5.60
2022-10-30T02:23:31.470Z,5.30
2022-10-30T02:24:31.446Z,5.90
2022-10-30T02:25:31.464Z,5.70
2022-10-30T02:26:31.428Z,6.00
2022-10-30T02:27:31.411Z,5.90
2022-10-30T02:28:31.408Z,5.10
2022-10-30T02:29:31.398Z,5.10
2022-10-30T02:30:31.409Z,5.80
2022-10-30T02:31:31.374Z,6.30
2022-10-30T02:32:31.362Z,5.60
2022-10-30T02:33:31.350Z,5.30
2022-10-30T02:34:31.340Z,5.90
2022-10-30T02:35:31.339Z,5.10
2022-10-30T02:36:31.311Z,5.60
2022-10-30T02:37:31.310Z,5.70
2022-10-30T02:38:31.299Z,6.00
2022-10-30T02:39:31.285Z,5.70
2022-10-30T02:40:31.294Z,5.80
2022-10-30T02:41:31.267Z,5.40
2022-10-30T02:42:31.245Z,5.90
2022-10-30T02:43:31.250Z,5.50
2022-10-30T02:44:31.232Z,6.10
2022-10-30T02:45:31.232Z,5.60
2022-10-30T02:46:31.203Z,5.90
2022-10-30T02:47:31.205Z,5.50
2022-10-30T02:48:31.196Z,5.90
2022-10-30T02:49:31.184Z,5.70
2022-10-30T02:50:31.186Z,6.20
2022-10-30T02:51:31.149Z,6.20
2022-10-30T02:52:31.186Z,5.90
2022-10-30T02:53:31.137Z,5.60
2022-10-30T02:54:31.116Z,5.80
2022-10-30T02:55:31.189Z,6.00
2022-10-30T02:56:31.097Z,5.60
2022-10-30T02:57:31.078Z,5.40
2022-10-30T02:58:31.086Z,5.80
2022-10-30T02:59:31.071Z,6.00
2022-10-30T03:00:31.068Z,6.10
2022-10-30T03:01:31.137Z,6.40
2022-10-30T03:02:31.038Z,5.60
2022-10-30T03:03:31.008Z,5.90
2022-10-30T03:04:31.018Z,5.90
2022-10-30T03:05:31.009Z,5.70
2022-10-30T03:06:30.996Z,5.80
2022-10-30T03:07:31.085Z,6.00
2022-10-30T03:08:31.102Z,5.90
2022-10-30T03:09:30.978Z,5.80
2022-10-30T03:10:31.218Z,6.10
2022-10-30T03:11:31.048Z,6.30
2022-10-30T03:12:30.928Z,6.10
2022-10-30T03:13:30.913Z,6.30
2022-10-30T03:14:30.903Z,5.90
2022-10-30T03:15:30.890Z,6.50
2022-10-30T03:16:31.020Z,6.70
2022-10-30T03:17:30.934Z,6.30
2022-10-30T03:18:30.864Z,6.10
2022-10-30T03:19:30.844Z,5.80
2022-10-30T03:20:30.860Z,5.90
2022-10-30T03:21:30.823Z,6.20
2022-10-30T03:22:30.819Z,5.90
2022-10-30T03:23:30.803Z,6.00
2022-10-30T03:24:30.793Z,6.00
2022-10-30T03:25:30.803Z,6.00
2022-10-30T03:26:30.774Z,5.80
2022-10-30T03:27:30.756Z,5.60
2022-10-30T03:28:30.755Z,6.40
2022-10-30T03:29:30.735Z,5.90
2022-10-30T03:30:30.736Z,6.60
2022-10-30T03:31:30.726Z,5.90
2022-10-30T03:32:30.708Z,6.70
2022-10-30T03:33:30.693Z,5.90
2022-10-30T03:34:30.674Z,6.00
2022-10-30T03:35:30.808Z,6.50
2022-10-30T03:36:30.656Z,6.80
2022-10-30T03:37:30.659Z,6.60
2022-10-30T03:38:30.648Z,6.40
2022-10-30T03:39:30.627Z,6.60
2022-10-30T03:40:30.638Z,6.20
2022-10-30T03:41:30.628Z,6.00
2022-10-30T03:42:30.608Z,6.30
2022-10-30T03:43:30.610Z,7.00
2022-10-30T03:44:30.589Z,6.80
2022-10-30T03:45:30.569Z,6.10
2022-10-30T03:46:30.549Z,6.30
2022-10-30T03:47:30.549Z,6.60
2022-10-30T03:48:30.531Z,6.30
2022-10-30T03:49:30.540Z,6.60
2022-10-30T03:50:30.529Z,6.70
2022-10-30T03:51:30.492Z,6.90
2022-10-30T03:52:30.489Z,5.90
2022-10-30T03:53:30.484Z,6.40
2022-10-30T03:54:30.460Z,6.40
2022-10-30T03:55:30.627Z,6.50
2022-10-30T03:56:30.441Z,7.10
2022-10-30T03:57:30.431Z,6.00
2022-10-30T03:58:30.423Z,6.50
2022-10-30T03:59:30.423Z,6.70
2022-10-30T04:00:30.406Z,6.10
2022-10-30T04:01:30.515Z,6.40
2022-10-30T04:02:30.375Z,6.30
2022-10-30T04:03:30.372Z,6.40
2022-10-30T04:04:30.342Z,6.10
2022-10-30T04:05:30.354Z,6.80
2022-10-30T04:06:30.323Z,5.50
2022-10-30T04:07:30.324Z,6.20
2022-10-30T04:08:30.311Z,6.00
2022-10-30T04:09:30.293Z,5.80
2022-10-30T04:10:30.341Z,6.60
2022-10-30T04:11:30.322Z,6.40
2022-10-30T04:12:30.264Z,5.90
2022-10-30T04:13:30.258Z,6.20
2022-10-30T04:14:30.235Z,6.20
2022-10-30T04:15:30.235Z,6.30
2022-10-30T04:16:30.216Z,6.10
2022-10-30T04:17:30.207Z,6.40
2022-10-30T04:18:30.186Z,6.10
2022-10-30T04:19:30.188Z,6.40
2022-10-30T04:20:30.186Z,6.10
2022-10-30T04:21:30.164Z,6.20
2022-10-30T04:22:30.151Z,6.70
2022-10-30T04:23:30.148Z,6.70
2022-10-30T04:24:30.119Z,7.10
2022-10-30T04:25:30.131Z,6.50
2022-10-30T04:26:30.228Z,6.40
2022-10-30T04:27:30.087Z,6.40
2022-10-30T04:28:30.070Z,6.30
2022-10-30T04:29:30.077Z,6.10
2022-10-30T04:30:30.068Z,6.80
2022-10-30T04:31:30.052Z,6.10
2022-10-30T04:32:30.044Z,6.70
2022-10-30T04:33:30.024Z,6.30
2022-10-30T04:34:30.012Z,6.40
2022-10-30T04:35:30.021Z,6.10
2022-10-30T04:36:29.990Z,6.00
2022-10-30T04:37:29.984Z,7.30
2022-10-30T04:38:29.961Z,6.60
2022-10-30T04:39:29.960Z,7.00
2022-10-30T04:40:29.965Z,6.50
2022-10-30T04:41:29.934Z,6.50
2022-10-30T04:42:29.923Z,6.60
2022-10-30T04:43:29.912Z,6.10
2022-10-30T04:44:29.903Z,6.30
2022-10-30T04:45:29.898Z,6.50
2022-10-30T04:46:29.877Z,6.60
2022-10-30T04:47:29.956Z,6.70
2022-10-30T04:48:29.859Z,6.50
2022-10-30T04:49:29.844Z,6.60
2022-10-30T04:50:29.844Z,6.40
2022-10-30T04:51:29.826Z,6.80
2022-10-30T04:52:29.813Z,6.60
2022-10-30T04:53:29.806Z,6.90
2022-10-30T04:54:29.785Z,6.50
2022-10-30T04:55:29.792Z,6.60
2022-10-30T04:56:29.766Z,7.00
2022-10-30T04:57:29.755Z,7.20
2022-10-30T04:58:29.761Z,6.60
2022-10-30T04:59:29.750Z,7.10
2022-10-30T05:00:29.745Z,6.60
2022-10-30T05:01:29.815Z,6.70
2022-10-30T05:02:29.889Z,7.50
2022-10-30T05:03:29.704Z,7.80
2022-10-30T05:04:29.684Z,6.60
2022-10-30T05:05:29.698Z,7.20
2022-10-30T05:06:29.648Z,6.90
2022-10-30T05:07:29.649Z,7.10
2022-10-30T05:08:29.639Z,6.30
2022-10-30T05:09:29.619Z,7.30
2022-10-30T05:10:29.636Z,6.80
2022-10-30T05:11:29.613Z,7.20
2022-10-30T05:12:29.588Z,6.60
2022-10-30T05:13:29.580Z,7.10
2022-10-30T05:14:29.571Z,7.30
2022-10-30T05:15:29.571Z,7.90
2022-10-30T05:16:29.550Z,7.50
2022-10-30T05:18:29.550Z,7.10
2022-10-30T05:19:29.510Z,7.80
2022-10-30T05:20:29.510Z,7.80
2022-10-30T05:21:29.502Z,7.70
2022-10-30T05:22:29.491Z,7.80
2022-10-30T05:23:29.472Z,7.40
2022-10-30T05:24:29.471Z,6.80
2022-10-30T05:25:29.471Z,7.90
2022-10-30T05:26:29.441Z,8.10
2022-10-30T05:27:29.433Z,7.80
2022-10-30T05:28:29.494Z,7.30
2022-10-30T05:29:29.415Z,7.80
2022-10-30T05:30:29.450Z,7.50
2022-10-30T05:31:29.392Z,7.80
2022-10-30T05:32:29.431Z,7.40
2022-10-30T05:33:29.383Z,7.90
2022-10-30T05:34:29.435Z,7.90
2022-10-30T05:35:29.363Z,8.00
2022-10-30T05:36:29.417Z,7.30
2022-10-30T05:37:29.325Z,7.30
2022-10-30T05:38:29.315Z,7.70
2022-10-30T05:39:29.306Z,7.80
2022-10-30T05:40:29.305Z,8.30
2022-10-30T05:41:29.285Z,7.60
2022-10-30T05:42:29.265Z,7.80
2022-10-30T05:43:29.265Z,7.50
2022-10-30T05:44:58.618Z,8.10
2022-10-30T05:45:30.259Z,7.80
2022-10-30T05:46:29.238Z,7.70
2022-10-30T05:47:29.236Z,9.20
2022-10-30T05:48:29.196Z,7.40
2022-10-30T05:49:29.197Z,7.70
2022-10-30T05:50:29.207Z,7.70
2022-10-30T05:51:29.171Z,7.40
2022-10-30T05:52:29.161Z,7.50
2022-10-30T05:53:29.150Z,7.90
2022-10-30T05:54:29.137Z,7.60
2022-10-30T05:55:29.156Z,7.60
2022-10-30T05:56:29.128Z,7.60
2022-10-30T05:57:29.100Z,7.40
2022-10-30T05:58:29.089Z,7.60
2022-10-30T05:59:29.090Z,7.60
2022-10-30T06:00:29.071Z,7.70
2022-10-30T06:01:29.197Z,7.90
2022-10-30T06:02:29.093Z,7.90
2022-10-30T06:03:29.040Z,7.50
2022-10-30T06:04:29.028Z,7.90
2022-10-30T06:05:29.019Z,7.70
2022-10-30T06:06:29.012Z,7.50
2022-10-30T06:07:29.002Z,8.10
2022-10-30T06:08:28.987Z,7.10
2022-10-30T06:09:28.987Z,6.70
2022-10-30T06:10:28.975Z,7.10
2022-10-30T06:11:28.953Z,7.60
2022-10-30T06:12:28.951Z,7.30
2022-10-30T06:13:28.942Z,7.60
2022-10-30T06:14:28.922Z,6.80
2022-10-30T06:15:28.913Z,7.10
2022-10-30T06:16:28.943Z,7.40
2022-10-30T06:17:28.894Z,7.80
2022-10-30T06:18:28.875Z,7.90
2022-10-30T06:19:28.886Z,7.10
2022-10-30T06:20:28.874Z,8.60
2022-10-30T06:21:28.864Z,9.10
2022-10-30T06:22:28.838Z,8.10
2022-10-30T06:23:28.854Z,8.10
2022-10-30T06:24:28.814Z,8.70
2022-10-30T06:25:28.824Z,8.60
2022-10-30T06:26:28.794Z,7.70
2022-10-30T06:27:28.777Z,7.90
2022-10-30T06:28:28.766Z,8.20
2022-10-30T06:29:28.756Z,8.80
2022-10-30T06:30:28.753Z,7.90
2022-10-30T06:31:28.738Z,7.80
2022-10-30T06:32:28.726Z,8.20
2022-10-30T06:33:28.707Z,7.90
2022-10-30T06:34:28.736Z,9.40
2022-10-30T06:35:28.697Z,8.30
2022-10-30T06:36:28.687Z,7.90
2022-10-30T06:37:28.669Z,8.70
2022-10-30T06:38:28.667Z,8.00
2022-10-30T06:39:28.637Z,7.90
2022-10-30T06:40:28.658Z,8.10
2022-10-30T06:41:30.570Z,7.50
2022-10-30T06:42:28.628Z,8.30
2022-10-30T06:43:28.609Z,7.80
2022-10-30T06:44:28.601Z,7.80
2022-10-30T06:45:28.593Z,8.00
2022-10-30T06:46:32.463Z,8.50
2022-10-30T06:47:29.560Z,8.10
2022-10-30T06:48:28.551Z,7.70
2022-10-30T06:49:28.531Z,8.70
2022-10-30T06:50:28.540Z,7.70
2022-10-30T06:51:28.688Z,8.20
2022-10-30T06:52:28.538Z,8.40
2022-10-30T06:53:28.502Z,8.60
2022-10-30T06:54:28.480Z,8.80
2022-10-30T06:55:28.482Z,7.90
2022-10-30T06:56:28.476Z,7.70
2022-10-30T06:57:28.453Z,8.80
2022-10-30T06:58:28.449Z,8.40
2022-10-30T06:59:28.432Z,8.60
2022-10-30T07:00:28.433Z,8.30
2022-10-30T07:01:28.480Z,8.30
2022-10-30T07:02:28.563Z,8.40
2022-10-30T07:03:28.394Z,7.40
2022-10-30T07:04:28.376Z,7.90
2022-10-30T07:05:28.391Z,7.70
2022-10-30T07:06:28.392Z,8.60
2022-10-30T07:07:28.369Z,8.20
2022-10-30T07:08:28.327Z,8.30
2022-10-30T07:09:28.323Z,8.00
2022-10-30T07:10:28.330Z,8.20
2022-10-30T07:11:28.307Z,8.20
2022-10-30T07:12:28.287Z,7.80
2022-10-30T07:13:28.291Z,8.10
2022-10-30T07:14:28.283Z,7.90
2022-10-30T07:15:28.351Z,8.20
2022-10-30T07:16:28.249Z,8.00
2022-10-30T07:17:28.236Z,8.20
2022-10-30T07:18:28.231Z,8.50
2022-10-30T07:19:28.219Z,8.70
2022-10-30T07:20:28.211Z,7.90
2022-10-30T07:21:28.200Z,7.90
2022-10-30T07:22:28.188Z,8.10
2022-10-30T07:23:28.176Z,7.90
2022-10-30T07:24:28.148Z,8.00
2022-10-30T07:25:28.158Z,7.70
2022-10-30T07:26:28.129Z,8.00
2022-10-30T07:27:28.121Z,8.00
2022-10-30T07:28:28.109Z,8.20
2022-10-30T07:29:28.102Z,8.00
2022-10-30T07:30:28.346Z,8.60
2022-10-30T07:31:41.557Z,7.80
2022-10-30T07:32:29.060Z,8.30
2022-10-30T07:33:28.057Z,8.10
2022-10-30T07:34:28.214Z,7.30
2022-10-30T07:35:28.063Z,8.10
2022-10-30T07:36:28.090Z,8.10
2022-10-30T07:37:28.012Z,8.00
2022-10-30T07:38:28.142Z,8.30
2022-10-30T07:39:27.982Z,8.80
2022-10-30T07:40:28.103Z,8.20
2022-10-30T07:41:27.973Z,8.60
2022-10-30T07:42:28.061Z,8.20
2022-10-30T07:43:27.945Z,8.10
2022-10-30T07:44:27.975Z,7.90
2022-10-30T07:45:28.006Z,9.00
2022-10-30T07:46:27.917Z,8.20
2022-10-30T07:47:27.903Z,7.80
2022-10-30T07:48:27.875Z,8.10
2022-10-30T07:49:27.873Z,7.90
2022-10-30T07:50:27.907Z,7.90
2022-10-30T07:51:27.855Z,8.00
2022-10-30T07:52:27.834Z,8.30
2022-10-30T07:53:27.825Z,7.40
2022-10-30T07:54:27.816Z,7.20
2022-10-30T07:55:29.635Z,7.90
2022-10-30T07:56:27.786Z,8.10
2022-10-30T07:57:27.801Z,7.50
2022-10-30T07:58:27.769Z,7.60
2022-10-30T07:59:27.769Z,7.50
2022-10-30T08:00:27.815Z,7.90
2022-10-30T08:01:27.794Z,7.90
2022-10-30T08:02:27.879Z,7.30
2022-10-30T08:03:27.710Z,7.80
2022-10-30T08:04:27.700Z,7.50
2022-10-30T08:05:30.000Z,7.00
2022-10-30T08:06:27.679Z,7.70
2022-10-30T08:07:27.679Z,7.50
2022-10-30T08:08:27.669Z,8.00
2022-10-30T08:09:27.660Z,7.50
2022-10-30T08:10:27.690Z,7.80
2022-10-30T08:11:27.631Z,7.20
2022-10-30T08:12:27.624Z,7.90
2022-10-30T08:13:27.611Z,6.90
2022-10-30T08:14:27.600Z,7.80
2022-10-30T08:15:27.591Z,7.80
2022-10-30T08:16:27.573Z,9.10
2022-10-30T08:17:27.562Z,6.90
2022-10-30T08:18:27.541Z,7.60
2022-10-30T08:19:27.544Z,8.10
2022-10-30T08:20:27.557Z,7.30
2022-10-30T08:21:27.512Z,7.00
2022-10-30T08:22:27.502Z,7.20
2022-10-30T08:23:27.517Z,6.80
2022-10-30T08:24:27.483Z,7.40
2022-10-30T08:25:27.479Z,8.30
2022-10-30T08:26:27.474Z,8.70
2022-10-30T08:27:27.444Z,7.40
2022-10-30T08:28:31.611Z,7.10
2022-10-30T08:29:28.439Z,7.10
2022-10-30T08:30:27.497Z,7.70
2022-10-30T08:31:27.423Z,7.00
2022-10-30T08:32:27.396Z,7.20
2022-10-30T08:33:27.399Z,7.10
2022-10-30T08:34:27.376Z,7.50
2022-10-30T08:35:27.511Z,6.60
2022-10-30T08:36:27.356Z,6.90
2022-10-30T08:37:27.345Z,7.30
2022-10-30T08:38:27.327Z,7.00
2022-10-30T08:39:27.327Z,7.10
2022-10-30T08:40:27.310Z,7.40
2022-10-30T08:41:27.310Z,7.40
2022-10-30T08:42:27.278Z,7.10
2022-10-30T08:43:27.323Z,7.30
2022-10-30T08:44:27.270Z,6.80
2022-10-30T08:45:30.851Z,7.30
2022-10-30T08:46:27.254Z,7.10
2022-10-30T08:47:27.234Z,6.80
2022-10-30T08:48:27.219Z,6.90
2022-10-30T08:49:27.210Z,6.90
2022-10-30T08:50:27.193Z,7.10
2022-10-30T08:51:27.192Z,7.30
2022-10-30T08:52:27.182Z,7.30
2022-10-30T08:53:27.170Z,7.10
2022-10-30T08:54:27.153Z,7.00
2022-10-30T08:55:27.151Z,6.70
2022-10-30T08:56:27.143Z,6.50
2022-10-30T08:57:27.115Z,6.30
2022-10-30T08:58:27.113Z,6.60
2022-10-30T08:59:27.095Z,6.60
2022-10-30T09:00:27.102Z,6.50
2022-10-30T09:01:27.248Z,6.90
2022-10-30T09:02:27.139Z,6.50
2022-10-30T09:03:27.056Z,6.30
2022-10-30T09:04:27.057Z,6.40
2022-10-30T09:05:27.035Z,6.60
2022-10-30T09:06:27.017Z,6.60
2022-10-30T09:07:27.024Z,6.30
2022-10-30T09:08:27.005Z,6.40
2022-10-30T09:09:27.006Z,6.90
2022-10-30T09:10:26.977Z,6.50
2022-10-30T09:11:26.986Z,6.50
2022-10-30T09:12:26.956Z,6.20
2022-10-30T09:13:26.950Z,6.10
2022-10-30T09:14:26.947Z,6.20
2022-10-30T09:15:26.918Z,6.00
2022-10-30T09:16:26.939Z,6.20
2022-10-30T09:17:26.906Z,6.00
2022-10-30T09:18:26.892Z,6.00
2022-10-30T09:19:26.889Z,6.50
2022-10-30T09:20:26.968Z,5.60
2022-10-30T09:21:26.890Z,6.20
2022-10-30T09:22:26.897Z,5.50
2022-10-30T09:23:26.842Z,6.20
2022-10-30T09:24:26.920Z,5.60
2022-10-30T09:25:26.841Z,5.70
2022-10-30T09:26:26.814Z,5.50
2022-10-30T09:27:26.791Z,5.20
2022-10-30T09:28:26.782Z,5.20
2022-10-30T09:29:26.776Z,5.60
2022-10-30T09:30:26.778Z,5.10
2022-10-30T09:31:26.745Z,5.80
2022-10-30T09:32:26.741Z,5.40
2022-10-30T09:33:26.746Z,6.60
2022-10-30T09:35:26.733Z,5.00
2022-10-30T09:36:26.684Z,5.20
2022-10-30T09:37:26.667Z,5.20
2022-10-30T09:38:26.666Z,5.70
2022-10-30T09:39:26.659Z,5.50
2022-10-30T09:40:26.657Z,5.20
2022-10-30T09:41:26.627Z,5.30
2022-10-30T09:42:26.633Z,4.90
2022-10-30T09:43:26.662Z,5.30
2022-10-30T09:44:26.606Z,5.60
2022-10-30T09:45:29.727Z,5.10
2022-10-30T09:46:26.617Z,4.90
2022-10-30T09:47:26.568Z,5.80
2022-10-30T09:48:26.551Z,5.00
2022-10-30T09:49:26.636Z,4.90
2022-10-30T09:50:26.560Z,5.00
2022-10-30T09:51:26.517Z,4.90
2022-10-30T09:52:26.520Z,5.30
2022-10-30T09:53:26.499Z,4.50
2022-10-30T09:54:26.490Z,5.60
2022-10-30T09:55:26.493Z,4.80
2022-10-30T09:56:26.470Z,6.40
2022-10-30T09:57:26.453Z,5.40
2022-10-30T09:58:26.454Z,5.00
2022-10-30T09:59:26.452Z,5.00
2022-10-30T10:00:26.444Z,5.10
2022-10-30T10:01:26.613Z,4.90
2022-10-30T10:02:26.516Z,4.60
2022-10-30T10:03:26.463Z,4.50
2022-10-30T10:04:27.016Z,4.70
2022-10-30T10:05:26.376Z,5.00
2022-10-30T10:06:26.356Z,4.70
2022-10-30T10:07:26.345Z,4.50
2022-10-30T10:08:26.337Z,4.70
2022-10-30T10:09:26.318Z,4.90
2022-10-30T10:10:26.328Z,5.10
2022-10-30T10:11:26.311Z,5.10
2022-10-30T10:12:26.298Z,4.90
2022-10-30T10:13:26.281Z,5.20
2022-10-30T10:14:26.271Z,4.90
2022-10-30T10:15:26.260Z,4.60
2022-10-30T10:16:26.251Z,4.80
2022-10-30T10:17:26.242Z,5.10
2022-10-30T10:18:26.311Z,4.70
2022-10-30T10:19:26.221Z,5.00
2022-10-30T10:20:26.221Z,4.30
2022-10-30T10:21:26.202Z,4.90
2022-10-30T10:22:26.192Z,5.10
2022-10-30T10:23:26.181Z,4.90
2022-10-30T10:24:26.182Z,4.30
2022-10-30T10:25:26.164Z,4.90
2022-10-30T10:26:26.195Z,4.50
2022-10-30T10:27:26.135Z,4.50
2022-10-30T10:28:26.136Z,4.90
2022-10-30T10:29:26.118Z,4.90
2022-10-30T10:30:26.116Z,4.40
2022-10-30T10:31:26.097Z,4.60
2022-10-30T10:32:26.089Z,4.60
2022-10-30T10:33:26.081Z,4.50
2022-10-30T10:34:26.061Z,4.20
2022-10-30T10:35:26.069Z,4.50
2022-10-30T10:36:26.042Z,4.60
2022-10-30T10:37:26.031Z,4.90
2022-10-30T10:38:26.033Z,4.00
2022-10-30T10:39:26.002Z,4.80
2022-10-30T10:40:26.013Z,4.40
2022-10-30T10:41:25.992Z,4.50
2022-10-30T10:42:25.985Z,4.40
2022-10-30T10:43:25.973Z,4.80
2022-10-30T10:44:25.983Z,4.50
2022-10-30T10:45:25.956Z,4.20
2022-10-30T10:46:25.946Z,4.50
2022-10-30T10:47:25.926Z,4.20
2022-10-30T10:48:25.920Z,4.30
2022-10-30T10:49:25.918Z,4.20
2022-10-30T10:50:25.928Z,4.50
2022-10-30T10:51:25.878Z,5.00
2022-10-30T10:52:25.909Z,4.40
2022-10-30T10:53:25.873Z,4.50
2022-10-30T10:54:25.869Z,4.50
2022-10-30T10:55:25.853Z,4.50
2022-10-30T10:56:25.839Z,4.50
2022-10-30T10:57:25.827Z,4.00
2022-10-30T10:58:25.822Z,4.80
2022-10-30T10:59:25.803Z,4.10
2022-10-30T11:00:25.803Z,4.20
2022-10-30T11:01:25.920Z,4.40
2022-10-30T11:02:25.971Z,4.10
2022-10-30T11:03:25.776Z,4.00
2022-10-30T11:04:25.756Z,4.20
2022-10-30T11:05:25.765Z,4.30
2022-10-30T11:06:25.758Z,4.40
2022-10-30T11:07:25.782Z,4.00
2022-10-30T11:08:25.718Z,4.50
2022-10-30T11:09:25.728Z,4.50
2022-10-30T11:10:25.717Z,4.20
2022-10-30T11:11:25.696Z,4.20
2022-10-30T11:12:25.669Z,5.30
2022-10-30T11:13:25.670Z,4.30
2022-10-30T11:14:25.663Z,4.10
2022-10-30T11:15:25.787Z,4.40
2022-10-30T11:16:25.641Z,4.70
2022-10-30T11:17:25.622Z,3.80
2022-10-30T11:18:25.613Z,3.80
2022-10-30T11:19:25.612Z,3.80
2022-10-30T11:20:25.599Z,3.90
2022-10-30T11:21:25.594Z,3.90
2022-10-30T11:22:25.574Z,3.90
2022-10-30T11:23:25.575Z,4.20
2022-10-30T11:24:25.546Z,4.10
2022-10-30T11:25:28.638Z,4.00
2022-10-30T11:26:26.547Z,4.00
2022-10-30T11:27:25.537Z,4.50
2022-10-30T11:28:25.516Z,3.80
2022-10-30T11:29:25.509Z,3.80
2022-10-30T11:30:25.480Z,4.00
2022-10-30T11:31:25.500Z,4.20
2022-10-30T11:32:25.471Z,4.10
2022-10-30T11:33:25.463Z,3.90
2022-10-30T11:34:25.452Z,4.00
2022-10-30T11:35:25.460Z,3.70
2022-10-30T11:36:25.434Z,4.10
2022-10-30T11:37:25.421Z,4.00
2022-10-30T11:38:25.404Z,4.00
2022-10-30T11:39:25.394Z,4.60
2022-10-30T11:40:25.384Z,4.20
2022-10-30T11:41:25.406Z,3.90
2022-10-30T11:42:25.365Z,3.60
2022-10-30T11:43:25.367Z,3.90
2022-10-30T11:44:25.348Z,3.50
2022-10-30T11:45:25.339Z,3.70
2022-10-30T11:46:25.418Z,4.30
2022-10-30T11:47:25.385Z,4.00
2022-10-30T11:48:26.055Z,3.60
2022-10-30T11:49:25.298Z,4.10
2022-10-30T11:50:25.299Z,3.90
2022-10-30T11:51:25.339Z,4.10
2022-10-30T11:52:25.274Z,3.70
2022-10-30T11:53:25.284Z,3.80
2022-10-30T11:54:25.243Z,3.50
2022-10-30T11:55:25.359Z,3.70
2022-10-30T11:56:25.243Z,3.90
2022-10-30T11:57:25.223Z,3.60
2022-10-30T11:58:25.205Z,3.70
2022-10-30T11:59:25.216Z,4.00
2022-10-30T12:00:25.218Z,4.10
2022-10-30T12:01:25.248Z,4.10
2022-10-30T12:02:25.249Z,3.40
2022-10-30T12:03:25.235Z,4.00
2022-10-30T12:04:25.144Z,3.90
2022-10-30T12:05:25.263Z,3.90
2022-10-30T12:06:25.119Z,4.20
2022-10-30T12:07:25.121Z,3.50
2022-10-30T12:08:25.101Z,3.70
2022-10-30T12:09:25.099Z,3.90
2022-10-30T12:10:25.089Z,4.10
2022-10-30T12:11:25.083Z,4.10
2022-10-30T12:12:25.062Z,3.20
2022-10-30T12:13:25.142Z,3.80
2022-10-30T12:14:25.137Z,3.70
2022-10-30T12:15:25.034Z,3.50
2022-10-30T12:16:25.043Z,3.80
2022-10-30T12:17:25.034Z,3.50
2022-10-30T12:18:25.040Z,3.60
2022-10-30T12:19:25.134Z,3.70
2022-10-30T12:20:25.009Z,3.90
2022-10-30T12:21:25.087Z,3.50
2022-10-30T12:22:24.996Z,4.20
2022-10-30T12:23:24.947Z,3.90
2022-10-30T12:24:24.940Z,4.30
2022-10-30T12:25:24.960Z,3.70
2022-10-30T12:26:24.927Z,3.70
2022-10-30T12:27:24.909Z,3.80
2022-10-30T12:28:24.899Z,3.50
2022-10-30T12:29:36.435Z,3.60
2022-10-30T12:30:25.893Z,3.90
2022-10-30T12:31:24.871Z,3.50
2022-10-30T12:32:24.863Z,3.50
2022-10-30T12:33:24.841Z,4.20
2022-10-30T12:34:24.844Z,3.90
2022-10-30T12:35:24.857Z,4.00
2022-10-30T12:36:24.815Z,4.00
2022-10-30T12:37:24.824Z,3.60
2022-10-30T12:38:24.807Z,3.80
2022-10-30T12:39:24.786Z,3.80
2022-10-30T12:40:24.786Z,3.70
2022-10-30T12:41:24.784Z,3.90
2022-10-30T12:42:24.758Z,3.80
2022-10-30T12:43:24.737Z,3.60
2022-10-30T12:44:24.738Z,3.90
2022-10-30T12:45:24.738Z,4.20
2022-10-30T12:46:24.710Z,3.60
2022-10-30T12:47:24.711Z,3.70
2022-10-30T12:48:24.689Z,4.20
2022-10-30T12:49:24.691Z,4.00
2022-10-30T12:50:24.680Z,3.30
2022-10-30T12:51:24.662Z,4.00
2022-10-30T12:52:24.653Z,4.40
2022-10-30T12:53:24.632Z,3.90
2022-10-30T12:54:24.623Z,3.90
2022-10-30T12:55:24.635Z,3.60
2022-10-30T12:56:24.616Z,3.80
2022-10-30T12:57:24.614Z,3.60
2022-10-30T12:58:24.603Z,3.70
2022-10-30T12:59:24.576Z,3.90
2022-10-30T13:00:24.585Z,3.70
2022-10-30T13:01:24.742Z,4.10
2022-10-30T13:02:24.584Z,4.00
2022-10-30T13:03:24.526Z,4.00
2022-10-30T13:04:24.537Z,4.10
2022-10-30T13:05:24.517Z,3.90
2022-10-30T13:06:24.501Z,4.00
2022-10-30T13:07:24.490Z,4.20
2022-10-30T13:08:24.490Z,3.90
2022-10-30T13:09:24.459Z,3.70
2022-10-30T13:10:24.467Z,3.60
2022-10-30T13:11:24.452Z,4.00
2022-10-30T13:12:24.430Z,3.60
2022-10-30T13:13:24.423Z,4.40
2022-10-30T13:14:24.412Z,3.60
2022-10-30T13:15:24.411Z,3.20
2022-10-30T13:16:24.393Z,3.90
2022-10-30T13:17:24.374Z,3.90
2022-10-30T13:18:24.365Z,3.80
2022-10-30T13:19:24.363Z,4.20
2022-10-30T13:20:24.374Z,4.30
2022-10-30T13:21:24.334Z,4.00